Time;durP1;ratioP1;P1;durP2;ratioP2;P2;SDS_P1;SDS_P2;PMS_P1;PMS_P2;Temp;Humidity;BMP_temperature;BMP_pressure;BME280_temperature;BME280_humidity;BME280_pressure;Samples;Min_cycle;Max_cycle;Signal;HPM_P1;HPM_P2
2022/05/06 00:00:07;;;;;;;8.38;6.50;;;;;;;7.71;99.95;101618.00;699422;28;923;-46
2022/05/06 00:00:27;;;;;;;8.73;6.43;;;;;;;7.73;100.00;101621.53;701393;28;871;-47
2022/05/06 00:00:47;;;;;;;7.63;6.13;;;;;;;7.68;100.00;101623.16;701334;28;868;-45
2022/05/06 00:01:08;;;;;;;7.90;6.30;;;;;;;7.70;100.00;101624.06;700179;27;4422;-48
2022/05/06 00:01:28;;;;;;;8.30;6.37;;;;;;;7.72;100.00;101627.56;699659;27;1054;-45
2022/05/06 00:01:50;;;;;;;8.60;6.80;;;;;;;7.66;100.00;101617.91;700520;28;1302;-46
2022/05/06 00:02:10;;;;;;;8.48;6.40;;;;;;;7.66;100.00;101619.66;699904;28;1426;-45
2022/05/06 00:02:31;;;;;;;9.00;6.10;;;;;;;7.74;99.53;101627.59;700899;28;1274;-45
2022/05/06 00:02:52;;;;;;;7.88;5.95;;;;;;;7.78;99.53;101625.13;701171;28;1148;-45
2022/05/06 00:03:12;;;;;;;8.18;6.25;;;;;;;7.82;99.21;101626.06;700228;28;1105;-45
2022/05/06 00:03:32;;;;;;;8.03;6.47;;;;;;;7.81;100.00;101617.38;698335;28;967;-45
2022/05/06 00:03:53;;;;;;;8.57;6.63;;;;;;;7.78;100.00;101622.53;697725;28;1090;-47
2022/05/06 00:04:14;;;;;;;8.43;6.43;;;;;;;7.75;100.00;101622.44;699119;27;4380;-45
2022/05/06 00:04:34;;;;;;;10.30;6.80;;;;;;;7.76;100.00;101624.19;700963;28;1339;-45
2022/05/06 00:04:55;;;;;;;10.52;6.68;;;;;;;7.75;100.00;101624.16;700052;28;1051;-45
2022/05/06 00:05:15;;;;;;;9.20;6.73;;;;;;;7.71;100.00;101623.22;700745;28;923;-46
2022/05/06 00:05:35;;;;;;;8.70;6.53;;;;;;;7.66;100.00;101620.50;700707;28;1074;-45
2022/05/06 00:05:56;;;;;;;8.50;6.50;;;;;;;7.71;100.00;101623.22;701634;28;1101;-45
2022/05/06 00:06:16;;;;;;;8.20;6.37;;;;;;;7.76;100.00;101626.81;700152;28;1909;-46
2022/05/06 00:06:38;;;;;;;8.13;6.35;;;;;;;7.75;100.00;101619.81;700436;28;1074;-45
2022/05/06 00:06:58;;;;;;;9.07;6.50;;;;;;;7.72;100.00;101627.56;699092;28;1330;-45
2022/05/06 00:07:19;;;;;;;8.40;6.50;;;;;;;7.73;100.00;101618.94;697175;28;4321;-45
2022/05/06 00:07:39;;;;;;;8.05;6.35;;;;;;;7.75;100.00;101616.34;697153;28;1006;-45
2022/05/06 00:08:00;;;;;;;10.43;6.50;;;;;;;7.73;100.00;101621.53;696607;28;1193;-46
2022/05/06 00:08:20;;;;;;;10.60;6.53;;;;;;;7.73;100.00;101623.28;698383;28;955;-46
2022/05/06 00:08:41;;;;;;;9.90;6.60;;;;;;;7.72;100.00;101619.75;698928;28;1121;-45
2022/05/06 00:09:03;;;;;;;9.43;6.53;;;;;;;7.62;100.00;101623.03;699255;28;1058;-45
2022/05/06 00:09:24;;;;;;;8.43;6.70;;;;;;;7.56;100.00;101623.75;698516;28;1031;-45
2022/05/06 00:09:44;;;;;;;8.87;7.07;;;;;;;7.58;100.00;101629.00;697661;28;1102;-46
2022/05/06 00:10:06;;;;;;;8.63;6.60;;;;;;;7.65;100.00;101620.47;699890;28;1207;-45
2022/05/06 00:10:26;;;;;;;8.18;6.30;;;;;;;7.60;100.00;101619.50;699712;28;4793;-45
2022/05/06 00:10:46;;;;;;;9.40;6.53;;;;;;;7.54;100.00;101621.97;699572;28;1260;-45
2022/05/06 00:11:07;;;;;;;8.77;6.50;;;;;;;7.47;100.00;101627.00;701486;28;1069;-46
2022/05/06 00:11:27;;;;;;;8.07;6.17;;;;;;;7.44;100.00;101624.34;700868;27;968;-45
2022/05/06 00:11:48;;;;;;;8.20;6.38;;;;;;;7.44;100.00;101629.53;699003;28;1016;-45
2022/05/06 00:12:10;;;;;;;8.70;6.80;;;;;;;7.40;100.00;101621.66;701024;28;1172;-46
2022/05/06 00:12:31;;;;;;;9.00;6.78;;;;;;;7.39;100.00;101625.94;699039;28;1038;-46
2022/05/06 00:12:52;;;;;;;9.05;6.28;;;;;;;7.41;100.00;101628.63;697173;28;1342;-46
2022/05/06 00:13:12;;;;;;;9.07;6.70;;;;;;;7.45;100.00;101620.91;697726;28;4427;-45
2022/05/06 00:13:33;;;;;;;8.70;6.57;;;;;;;7.54;100.00;101624.56;699600;28;1062;-46
2022/05/06 00:13:53;;;;;;;8.30;6.17;;;;;;;7.62;100.00;101617.81;695750;28;1820;-45
2022/05/06 00:14:13;;;;;;;9.15;6.60;;;;;;;7.65;100.00;101623.09;695897;28;1297;-46
2022/05/06 00:14:37;;;;;;;8.47;6.73;;;;;;;7.69;100.00;101619.72;699044;28;1093;-45
2022/05/06 00:14:57;;;;;;;8.80;6.50;;;;;;;7.70;100.00;101625.78;702178;27;1013;-45
2022/05/06 00:15:18;;;;;;;9.00;6.60;;;;;;;7.63;100.00;101620.44;702492;27;1299;-46
2022/05/06 00:15:38;;;;;;;8.73;6.75;;;;;;;7.53;100.00;101628.00;702219;27;1147;-45
2022/05/06 00:15:58;;;;;;;8.77;6.67;;;;;;;7.50;100.00;101629.72;700333;28;1744;-45
2022/05/06 00:16:23;;;;;;;9.45;6.20;;;;;;;7.55;100.00;101628.94;699282;27;4527;-45
2022/05/06 00:16:44;;;;;;;8.65;6.13;;;;;;;7.65;100.00;101625.69;699992;28;3626;-45
2022/05/06 00:17:05;;;;;;;10.77;6.20;;;;;;;7.61;100.00;101624.72;699432;28;1065;-45
2022/05/06 00:17:25;;;;;;;9.45;6.20;;;;;;;7.62;100.00;101633.44;700894;28;1109;-45
2022/05/06 00:17:46;;;;;;;7.73;6.00;;;;;;;7.64;99.72;101621.31;696771;28;1188;-47
2022/05/06 00:18:06;;;;;;;9.83;6.30;;;;;;;7.62;99.84;101630.81;694828;28;1115;-45
2022/05/06 00:18:27;;;;;;;9.20;6.40;;;;;;;7.63;99.51;101624.78;694834;28;1083;-46
2022/05/06 00:18:49;;;;;;;8.23;6.20;;;;;;;7.59;100.00;101629.03;691437;28;1111;-45
2022/05/06 00:19:09;;;;;;;9.13;6.72;;;;;;;7.53;100.00;101630.59;694821;28;4646;-45
2022/05/06 00:19:30;;;;;;;9.13;6.60;;;;;;;7.39;100.00;101625.94;694171;28;1139;-45
2022/05/06 00:19:51;;;;;;;9.70;6.67;;;;;;;7.41;100.00;101636.41;697349;28;1080;-45
2022/05/06 00:20:11;;;;;;;9.45;6.22;;;;;;;7.47;100.00;101634.81;699509;28;1086;-46
2022/05/06 00:20:32;;;;;;;9.63;6.57;;;;;;;7.49;100.00;101638.34;700683;28;1086;-45
2022/05/06 00:20:52;;;;;;;9.52;6.45;;;;;;;7.46;100.00;101633.09;698462;28;1010;-46
2022/05/06 00:21:12;;;;;;;8.37;6.10;;;;;;;7.44;100.00;101626.94;699539;28;1102;-45
2022/05/06 00:21:33;;;;;;;8.53;6.20;;;;;;;7.46;100.00;101633.09;697416;28;1022;-46
2022/05/06 00:21:53;;;;;;;8.23;5.80;;;;;;;7.47;100.00;101629.59;697477;28;1002;-47
2022/05/06 00:22:14;;;;;;;8.63;6.30;;;;;;;7.48;100.00;101635.72;697504;28;4606;-45
2022/05/06 00:22:34;;;;;;;8.20;6.30;;;;;;;7.44;100.00;101634.75;697291;28;1257;-46
2022/05/06 00:22:57;;;;;;;8.03;6.33;;;;;;;7.47;100.00;101634.81;700491;28;1685;-45
2022/05/06 00:23:17;;;;;;;8.48;6.50;;;;;;;7.57;100.00;101629.84;700925;28;1183;-45
2022/05/06 00:23:38;;;;;;;7.87;6.23;;;;;;;7.63;99.87;101630.00;701031;28;1062;-45
2022/05/06 00:23:59;;;;;;;8.77;6.47;;;;;;;7.58;100.00;101632.47;700091;28;950;-46
2022/05/06 00:24:19;;;;;;;9.07;6.50;;;;;;;7.53;100.00;101630.59;700480;28;851;-45
2022/05/06 00:24:40;;;;;;;8.57;6.57;;;;;;;7.45;100.00;101635.66;700310;28;1121;-45
2022/05/06 00:25:00;;;;;;;8.20;6.22;;;;;;;7.47;100.00;101629.59;699186;28;1108;-45
2022/05/06 00:25:21;;;;;;;8.18;5.97;;;;;;;7.47;100.00;101634.81;700422;27;4582;-45
2022/05/06 00:25:42;;;;;;;9.73;6.40;;;;;;;7.46;100.00;101637.38;699943;28;1381;-47
2022/05/06 00:26:03;;;;;;;10.50;6.53;;;;;;;7.42;100.00;101631.25;700420;28;1061;-47
2022/05/06 00:26:23;;;;;;;9.93;7.05;;;;;;;7.38;100.00;101637.22;699894;28;1925;-45
2022/05/06 00:26:43;;;;;;;9.00;6.80;;;;;;;7.33;100.00;101638.81;700062;28;994;-45
2022/05/06 00:27:04;;;;;;;9.05;6.57;;;;;;;7.29;100.00;101631.78;699810;28;1034;-45
2022/05/06 00:27:25;;;;;;;8.53;6.33;;;;;;;7.32;100.00;101635.34;700025;28;1006;-45
2022/05/06 00:27:45;;;;;;;9.30;6.33;;;;;;;7.30;100.00;101633.56;699611;28;2154;-47
2022/05/06 00:28:05;;;;;;;9.13;6.50;;;;;;;7.30;100.00;101630.94;699648;27;5177;-45
2022/05/06 00:28:30;;;;;;;8.50;6.55;;;;;;;7.33;100.00;101636.22;700122;28;1176;-46
2022/05/06 00:28:50;;;;;;;8.95;6.45;;;;;;;7.30;100.00;101630.94;696199;28;1268;-45
2022/05/06 00:29:11;;;;;;;8.73;6.75;;;;;;;7.29;100.00;101631.78;692884;28;1683;-48
2022/05/06 00:29:31;;;;;;;8.17;6.63;;;;;;;7.29;100.00;101634.38;694762;28;1423;-45
2022/05/06 00:29:52;;;;;;;9.85;6.57;;;;;;;7.33;100.00;101633.63;695011;28;1629;-45
2022/05/06 00:30:12;;;;;;;8.60;6.30;;;;;;;7.41;100.00;101632.09;693641;28;1269;-46
2022/05/06 00:30:33;;;;;;;9.13;6.28;;;;;;;7.39;100.00;101636.34;694919;28;891;-45
2022/05/06 00:30:53;;;;;;;9.10;6.30;;;;;;;7.37;100.00;101635.44;698418;28;1105;-45
2022/05/06 00:31:14;;;;;;;8.38;6.75;;;;;;;7.33;100.00;101631.88;694726;28;4522;-45
2022/05/06 00:31:35;;;;;;;9.10;6.70;;;;;;;7.32;100.00;101631.84;692940;28;1425;-46
2022/05/06 00:31:56;;;;;;;8.73;6.63;;;;;;;7.31;100.00;101627.50;692669;28;1178;-45
2022/05/06 00:32:16;;;;;;;7.80;6.35;;;;;;;7.28;100.00;101628.31;693981;28;1067;-46
2022/05/06 00:32:37;;;;;;;8.50;6.40;;;;;;;7.33;100.00;101631.03;693825;28;1213;-45
2022/05/06 00:32:57;;;;;;;8.48;6.20;;;;;;;7.33;100.00;101631.03;693190;28;1198;-44
2022/05/06 00:33:17;;;;;;;9.00;6.37;;;;;;;7.31;100.00;101630.09;693682;28;1107;-45
2022/05/06 00:33:39;;;;;;;9.23;6.63;;;;;;;7.34;100.00;101630.19;696864;28;1233;-45
2022/05/06 00:33:59;;;;;;;9.13;6.70;;;;;;;7.32;100.00;101629.25;696039;28;1080;-45
2022/05/06 00:34:19;;;;;;;9.90;6.70;;;;;;;7.30;100.00;101624.00;695090;28;4435;-46
2022/05/06 00:34:41;;;;;;;10.15;6.85;;;;;;;7.25;100.00;101633.41;697202;28;1148;-45
2022/05/06 00:35:01;;;;;;;9.80;6.80;;;;;;;7.23;100.00;101632.53;697634;28;1108;-46
2022/05/06 00:35:25;;;;;;;8.60;6.60;;;;;;;7.24;100.00;101620.38;698234;28;1138;-46
2022/05/06 00:35:46;;;;;;;8.82;6.47;;;;;;;7.23;100.00;101634.25;698137;28;1170;-46
2022/05/06 00:36:08;;;;;;;8.45;6.38;;;;;;;7.19;100.00;101628.09;700887;28;1189;-47
2022/05/06 00:36:28;;;;;;;8.98;6.70;;;;;;;7.19;100.00;101622.88;700456;28;1121;-45
2022/05/06 00:36:51;;;;;;;9.68;6.63;;;;;;;7.23;100.00;101629.06;699963;28;1244;-45
2022/05/06 00:37:11;;;;;;;9.60;6.43;;;;;;;7.24;100.00;101630.78;698103;28;4538;-46
2022/05/06 00:37:31;;;;;;;9.18;6.53;;;;;;;7.22;100.00;101627.28;696909;28;1156;-45
2022/05/06 00:37:52;;;;;;;9.03;6.70;;;;;;;7.24;100.00;101626.50;698509;28;1072;-45
2022/05/06 00:38:12;;;;;;;8.77;6.57;;;;;;;7.29;100.00;101629.19;695464;28;1405;-45
2022/05/06 00:38:34;;;;;;;8.48;6.38;;;;;;;7.29;100.00;101631.78;696506;28;1094;-45
2022/05/06 00:38:55;;;;;;;9.27;6.63;;;;;;;7.29;100.00;101629.19;694982;28;1002;-47
2022/05/06 00:39:16;;;;;;;9.30;6.80;;;;;;;7.26;100.00;101629.13;696107;28;4741;-46
2022/05/06 00:39:38;;;;;;;9.18;6.80;;;;;;;7.23;100.00;101632.53;693379;28;1636;-47
2022/05/06 00:39:59;;;;;;;10.40;7.10;;;;;;;7.23;100.00;101623.84;694084;28;1199;-46
2022/05/06 00:40:19;;;;;;;9.43;6.90;;;;;;;7.27;100.00;101626.56;698526;28;4494;-46
2022/05/06 00:40:40;;;;;;;9.40;6.70;;;;;;;7.32;100.00;101629.25;696195;28;1012;-46
2022/05/06 00:41:01;;;;;;;8.68;6.40;;;;;;;7.30;100.00;101631.81;698584;28;830;-45
2022/05/06 00:41:21;;;;;;;8.53;6.50;;;;;;;7.29;100.00;101634.38;697764;28;922;-45
2022/05/06 00:41:44;;;;;;;10.20;6.80;;;;;;;7.31;100.00;101630.97;696453;28;1241;-46
2022/05/06 00:42:05;;;;;;;10.00;6.97;;;;;;;7.29;100.00;101629.19;696743;28;764;-45
2022/05/06 00:42:27;;;;;;;8.60;6.50;;;;;;;7.27;100.00;101631.75;696383;28;875;-48
2022/05/06 00:42:51;;;;;;;8.63;6.75;;;;;;;7.26;100.00;101632.59;694312;28;1171;-45
2022/05/06 00:43:12;;;;;;;9.35;6.80;;;;;;;7.31;100.00;101627.50;694681;28;4390;-47
2022/05/06 00:43:33;;;;;;;8.95;6.70;;;;;;;7.39;100.00;101625.06;692868;28;880;-45
2022/05/06 00:43:53;;;;;;;9.35;6.60;;;;;;;7.36;100.00;101630.22;692280;28;1186;-45
2022/05/06 00:44:16;;;;;;;10.00;6.50;;;;;;;7.39;100.00;101628.56;693084;28;957;-46
2022/05/06 00:44:36;;;;;;;8.90;6.20;;;;;;;7.44;100.00;101631.28;694452;28;935;-47
2022/05/06 00:44:57;;;;;;;9.43;6.40;;;;;;;7.50;100.00;101631.41;693065;28;1398;-45
2022/05/06 00:45:17;;;;;;;8.57;6.60;;;;;;;7.46;100.00;101632.19;693332;28;808;-47
2022/05/06 00:45:52;;;;;;;9.05;6.85;;;;;;;7.48;100.00;101630.50;691462;28;1574;-45
2022/05/06 00:46:16;;;;;;;10.50;6.60;;;;;;;7.52;100.00;101636.66;692581;28;4279;-45
2022/05/06 00:46:40;;;;;;;8.25;6.45;;;;;;;7.54;100.00;101629.78;692827;28;805;-45
2022/05/06 00:47:01;;;;;;;9.68;6.68;;;;;;;7.50;100.00;101628.81;693063;28;2248;-45
2022/05/06 00:47:22;;;;;;;9.02;6.40;;;;;;;7.48;100.00;101625.31;696703;28;1513;-45
2022/05/06 00:47:43;;;;;;;9.27;6.60;;;;;;;7.44;100.00;101628.69;696814;28;1549;-45
2022/05/06 00:48:06;;;;;;;10.18;6.72;;;;;;;7.41;100.00;101631.22;695659;28;1364;-45
2022/05/06 00:48:28;;;;;;;8.70;6.53;;;;;;;7.43;100.00;101629.50;695292;28;1282;-45
2022/05/06 00:48:49;;;;;;;9.10;6.82;;;;;;;7.51;100.00;101627.97;696453;28;1229;-45
2022/05/06 00:49:12;;;;;;;9.13;7.00;;;;;;;7.53;100.00;101625.41;695320;28;4357;-46
2022/05/06 00:49:34;;;;;;;10.07;7.20;;;;;;;7.48;100.00;101627.91;695120;28;1216;-46
2022/05/06 00:49:54;;;;;;;9.63;7.07;;;;;;;7.44;100.00;101633.88;695762;28;1580;-44
2022/05/06 00:50:16;;;;;;;9.40;6.67;;;;;;;7.47;100.00;101629.59;699001;28;1014;-45
2022/05/06 00:50:38;;;;;;;8.93;6.65;;;;;;;7.57;100.00;101632.44;699630;28;1132;-45
2022/05/06 00:51:00;;;;;;;9.18;6.75;;;;;;;7.53;100.00;101628.00;696680;28;1115;-45
2022/05/06 00:51:23;;;;;;;9.57;7.00;;;;;;;7.48;100.00;101626.19;695789;28;1453;-45
2022/05/06 00:51:44;;;;;;;10.98;6.90;;;;;;;7.47;100.00;101624.41;694274;28;1308;-46
2022/05/06 00:52:06;;;;;;;8.97;6.80;;;;;;;7.45;100.00;101627.84;695855;28;1182;-45
2022/05/06 00:52:26;;;;;;;9.50;6.72;;;;;;;7.40;100.00;101632.06;695228;28;5020;-45
2022/05/06 00:52:47;;;;;;;8.90;6.63;;;;;;;7.40;100.00;101632.91;694091;28;1532;-46
2022/05/06 00:53:08;;;;;;;8.87;6.57;;;;;;;7.41;100.00;101629.47;695551;28;1270;-45
2022/05/06 00:53:28;;;;;;;8.65;6.50;;;;;;;7.39;100.00;101631.16;697813;28;1477;-46
2022/05/06 00:53:52;;;;;;;9.25;6.57;;;;;;;7.36;100.00;101625.00;700059;28;1531;-45
2022/05/06 00:54:15;;;;;;;9.60;6.88;;;;;;;7.40;100.00;101626.84;694389;28;1792;-47
2022/05/06 00:54:38;;;;;;;10.10;6.78;;;;;;;7.36;100.00;101630.22;691256;28;1400;-46
2022/05/06 00:54:59;;;;;;;9.38;7.05;;;;;;;7.36;100.00;101633.69;690897;28;1272;-46
2022/05/06 00:55:19;;;;;;;8.38;6.63;;;;;;;7.37;100.00;101634.59;690856;28;4350;-46
2022/05/06 00:55:40;;;;;;;8.73;6.70;;;;;;;7.39;100.00;101636.34;690148;28;1235;-45
2022/05/06 00:56:02;;;;;;;9.52;6.80;;;;;;;7.38;100.00;101637.22;689931;28;1172;-45
2022/05/06 00:56:25;;;;;;;9.38;6.75;;;;;;;7.37;100.00;101630.25;690058;28;1458;-45
2022/05/06 00:56:46;;;;;;;8.65;6.65;;;;;;;7.38;100.00;101634.63;694449;28;1142;-46
2022/05/06 00:57:08;;;;;;;9.95;6.78;;;;;;;7.35;100.00;101628.44;696778;28;1270;-46
2022/05/06 00:57:30;;;;;;;9.80;7.07;;;;;;;7.32;100.00;101634.44;696423;28;1110;-47
2022/05/06 00:57:52;;;;;;;9.60;7.00;;;;;;;7.31;100.00;101638.78;697224;28;1379;-45
2022/05/06 00:58:14;;;;;;;8.65;6.53;;;;;;;7.29;100.00;101639.59;695645;28;4284;-47
2022/05/06 00:58:35;;;;;;;8.55;6.70;;;;;;;7.28;100.00;101640.41;694218;28;1580;-45
2022/05/06 00:58:55;;;;;;;8.82;6.80;;;;;;;7.29;100.00;101631.78;696981;28;1078;-45
2022/05/06 00:59:16;;;;;;;8.00;6.38;;;;;;;7.33;100.00;101633.63;699117;28;1125;-46
2022/05/06 01:00:17;;;;;;;8.35;6.50;;;;;;;7.38;100.00;101639.81;701557;28;1213;-45
2022/05/06 01:00:18;;;;;;;9.55;6.80;;;;;;;7.32;100.00;101637.06;698303;28;1241;-46
2022/05/06 01:00:38;;;;;;;9.38;6.65;;;;;;;7.30;100.00;101637.03;696220;28;1473;-45
2022/05/06 01:00:58;;;;;;;9.17;6.40;;;;;;;7.31;100.00;101640.50;694409;28;1180;-46
2022/05/06 01:01:19;;;;;;;9.10;6.50;;;;;;;7.37;99.50;101643.25;695076;28;4399;-48
2022/05/06 01:01:40;;;;;;;8.30;6.40;;;;;;;7.41;99.37;101639.88;695743;28;1059;-45
2022/05/06 01:02:01;;;;;;;8.82;6.40;;;;;;;7.46;99.00;101638.28;693554;28;1300;-46
2022/05/06 01:02:23;;;;;;;8.55;6.55;;;;;;;7.49;98.99;101633.16;694056;28;1369;-45
2022/05/06 01:02:44;;;;;;;8.15;6.60;;;;;;;7.51;99.06;101635.78;694923;28;1466;-45
2022/05/06 01:03:05;;;;;;;8.77;6.75;;;;;;;7.49;98.81;101634.84;697013;28;1256;-46
2022/05/06 01:03:25;;;;;;;8.88;6.50;;;;;;;7.49;99.06;101635.75;695785;28;903;-45
2022/05/06 01:03:46;;;;;;;9.07;6.53;;;;;;;7.50;99.73;101641.81;695116;28;1653;-46
2022/05/06 01:04:07;;;;;;;10.02;6.82;;;;;;;7.54;99.01;101640.19;694180;28;4401;-46
2022/05/06 01:04:28;;;;;;;8.43;6.25;;;;;;;7.57;97.69;101642.84;695397;28;1525;-46
2022/05/06 01:04:51;;;;;;;7.97;6.33;;;;;;;7.56;98.61;101644.59;695076;28;979;-45
2022/05/06 01:05:13;;;;;;;7.97;6.20;;;;;;;7.55;99.00;101641.94;695870;28;2043;-45
2022/05/06 01:05:36;;;;;;;9.30;6.25;;;;;;;7.53;98.81;101641.88;694528;28;1933;-45
2022/05/06 01:05:57;;;;;;;9.77;6.38;;;;;;;7.46;100.00;101645.19;691122;28;1254;-45
2022/05/06 01:06:18;;;;;;;9.23;6.72;;;;;;;7.42;100.00;101640.75;692512;28;1898;-46
2022/05/06 01:06:43;;;;;;;9.63;6.78;;;;;;;7.30;100.00;101644.81;689542;28;1464;-45
2022/05/06 01:07:04;;;;;;;8.98;6.53;;;;;;;7.26;100.00;101645.59;687760;28;1263;-46
2022/05/06 01:07:24;;;;;;;8.90;6.80;;;;;;;7.24;100.00;101646.38;687729;28;4451;-46
2022/05/06 01:07:47;;;;;;;9.32;6.82;;;;;;;7.30;100.00;101643.97;689352;28;1401;-45
2022/05/06 01:08:10;;;;;;;8.93;6.57;;;;;;;7.30;100.00;101646.56;691036;28;1495;-47
2022/05/06 01:08:30;;;;;;;9.68;7.00;;;;;;;7.25;100.00;101638.63;694020;28;1168;-45
2022/05/06 01:08:52;;;;;;;9.10;6.88;;;;;;;7.23;100.00;101645.53;693509;28;1373;-45
2022/05/06 01:09:15;;;;;;;9.27;6.68;;;;;;;7.21;100.00;101646.31;692603;28;1229;-45
2022/05/06 01:09:36;;;;;;;9.45;6.90;;;;;;;7.21;100.00;101646.31;694941;28;1107;-47
2022/05/06 01:09:57;;;;;;;9.70;6.70;;;;;;;7.18;100.00;101646.25;693510;28;1211;-47
2022/05/06 01:10:18;;;;;;;8.83;6.73;;;;;;;7.12;100.00;101645.25;696165;28;4492;-45
2022/05/06 01:10:41;;;;;;;9.10;6.80;;;;;;;7.13;100.00;101649.63;694228;28;1410;-46
2022/05/06 01:11:02;;;;;;;9.43;6.78;;;;;;;7.12;100.00;101647.84;692465;28;1272;-46
2022/05/06 01:11:23;;;;;;;9.63;6.78;;;;;;;7.07;100.00;101652.03;695427;28;996;-45
2022/05/06 01:11:44;;;;;;;9.10;6.90;;;;;;;7.04;100.00;101651.09;696033;28;1213;-45
2022/05/06 01:12:05;;;;;;;9.45;7.07;;;;;;;7.01;100.00;101649.31;698296;28;2030;-46
2022/05/06 01:12:26;;;;;;;9.68;6.70;;;;;;;6.96;100.00;101653.50;697216;28;1351;-47
2022/05/06 01:12:47;;;;;;;9.60;7.05;;;;;;;6.95;100.00;101649.13;689754;28;1637;-45
2022/05/06 01:13:12;;;;;;;8.50;6.70;;;;;;;6.99;100.00;101653.56;686607;28;4432;-45
2022/05/06 01:13:43;;;;;;;8.77;6.63;;;;;;;7.03;100.00;101647.59;687334;28;1267;-45
2022/05/06 01:14:05;;;;;;;7.88;6.30;;;;;;;7.04;100.00;101651.97;689459;28;1442;-47
2022/05/06 01:14:31;;;;;;;9.57;6.90;;;;;;;6.95;100.00;101644.84;693080;28;1482;-45
2022/05/06 01:14:53;;;;;;;9.90;7.00;;;;;;;6.89;100.00;101652.44;692981;28;2210;-45
2022/05/06 01:15:32;;;;;;;9.35;7.25;;;;;;;6.90;100.00;101649.03;695689;28;1197;-46
2022/05/06 01:16:06;;;;;;;8.98;6.90;;;;;;;6.84;100.00;101653.16;695133;28;1471;-45
2022/05/06 01:16:37;;;;;;;9.50;6.88;;;;;;;6.76;100.00;101647.78;695443;28;5242;-45
2022/05/06 01:17:00;;;;;;;10.48;7.53;;;;;;;6.68;100.00;101650.16;694346;28;1275;-45
2022/05/06 01:17:23;;;;;;;9.48;7.32;;;;;;;6.69;100.00;101653.63;694498;28;1312;-46
2022/05/06 01:17:44;;;;;;;10.10;7.30;;;;;;;6.66;100.00;101646.66;695239;28;1099;-45
2022/05/06 01:18:05;;;;;;;10.07;7.40;;;;;;;6.62;100.00;101650.03;697180;28;1537;-45
2022/05/06 01:18:25;;;;;;;9.25;7.13;;;;;;;6.59;100.00;101644.72;696795;28;1484;-46
2022/05/06 01:18:47;;;;;;;9.23;7.03;;;;;;;6.57;100.00;101651.59;695938;28;1320;-45
2022/05/06 01:19:09;;;;;;;9.57;6.85;;;;;;;6.56;100.00;101649.84;692785;28;4547;-45
2022/05/06 01:19:29;;;;;;;9.25;7.10;;;;;;;6.55;100.00;101648.06;693809;28;1218;-45
2022/05/06 01:19:49;;;;;;;9.23;7.27;;;;;;;6.51;100.00;101649.72;695353;28;1058;-45
2022/05/06 01:20:11;;;;;;;9.63;7.37;;;;;;;6.50;100.00;101652.28;696108;28;1221;-46
2022/05/06 01:20:37;;;;;;;9.25;7.40;;;;;;;6.46;100.00;101649.56;693252;28;1182;-45
2022/05/06 01:21:00;;;;;;;9.13;7.35;;;;;;;6.45;100.00;101646.94;693564;28;2225;-46
2022/05/06 01:21:24;;;;;;;9.70;7.38;;;;;;;6.44;100.00;101648.66;692411;28;1318;-48
2022/05/06 01:21:52;;;;;;;9.50;7.22;;;;;;;6.55;100.00;101650.66;694984;28;1254;-45
2022/05/06 01:22:13;;;;;;;9.45;6.53;;;;;;;6.63;100.00;101647.47;697634;27;4524;-47
2022/05/06 01:22:33;;;;;;;8.80;6.67;;;;;;;6.69;100.00;101651.03;692372;28;1382;-46
2022/05/06 01:23:00;;;;;;;9.75;7.20;;;;;;;6.70;100.00;101648.50;689483;28;1249;-45
2022/05/06 01:23:23;;;;;;;8.63;7.10;;;;;;;6.77;100.00;101649.53;693632;28;1657;-45
2022/05/06 01:23:44;;;;;;;9.88;7.30;;;;;;;6.86;100.00;101648.91;694870;28;1071;-47
2022/05/06 01:24:05;;;;;;;9.00;7.03;;;;;;;6.92;100.00;101651.66;696588;28;1752;-47
2022/05/06 01:24:26;;;;;;;9.43;6.55;;;;;;;7.02;100.00;101648.47;697154;28;1109;-45
2022/05/06 01:24:47;;;;;;;10.27;6.60;;;;;;;7.08;100.00;101642.53;698162;28;1228;-47
2022/05/06 01:25:08;;;;;;;9.57;6.63;;;;;;;7.13;100.00;101644.41;694412;28;4718;-45
2022/05/06 01:25:29;;;;;;;8.57;6.80;;;;;;;7.18;100.00;101651.47;695006;28;1034;-46
2022/05/06 01:25:49;;;;;;;8.95;6.55;;;;;;;7.19;100.00;101651.50;698133;28;1054;-45
2022/05/06 01:26:10;;;;;;;8.33;6.30;;;;;;;7.25;100.00;101645.56;698378;28;1153;-45
2022/05/06 01:26:56;;;;;;;7.60;6.10;;;;;;;7.24;100.00;101646.38;697221;28;1055;-46
2022/05/06 01:27:25;;;;;;;8.70;6.45;;;;;;;7.20;100.00;101645.47;700704;28;1113;-45
2022/05/06 01:27:48;;;;;;;8.65;6.25;;;;;;;7.19;100.00;101645.41;697223;28;1193;-45
2022/05/06 01:28:12;;;;;;;8.57;6.43;;;;;;;7.12;100.00;101649.59;697846;27;4493;-45
2022/05/06 01:28:35;;;;;;;9.50;6.75;;;;;;;6.99;100.00;101651.88;697093;28;1194;-46
2022/05/06 01:28:55;;;;;;;8.93;6.78;;;;;;;6.91;100.00;101642.09;695474;28;1324;-45
2022/05/06 01:29:17;;;;;;;8.90;6.57;;;;;;;6.86;100.00;101651.50;692937;28;1350;-45
2022/05/06 01:29:38;;;;;;;9.95;6.47;;;;;;;6.82;100.00;101648.81;693761;28;1111;-46
2022/05/06 01:30:04;;;;;;;9.38;6.68;;;;;;;6.81;100.00;101652.28;694726;28;1074;-45
2022/05/06 01:30:31;;;;;;;9.20;7.10;;;;;;;6.78;100.00;101652.19;695596;28;1221;-46
2022/05/06 01:31:00;;;;;;;9.82;6.68;;;;;;;6.79;100.00;101653.06;694888;28;1372;-45
2022/05/06 01:31:23;;;;;;;9.58;7.16;;;;;;;6.76;100.00;101653.00;694056;28;4485;-47
2022/05/06 01:31:44;;;;;;;8.98;6.90;;;;;;;6.74;100.00;101655.56;694342;28;1008;-46
2022/05/06 01:32:05;;;;;;;10.15;6.95;;;;;;;6.71;100.00;101650.25;697984;28;1146;-47
2022/05/06 01:32:27;;;;;;;10.68;6.90;;;;;;;6.69;100.00;101658.84;698065;28;1149;-45
2022/05/06 01:32:49;;;;;;;9.45;6.80;;;;;;;6.66;100.00;101657.06;697820;28;1059;-46
2022/05/06 01:33:14;;;;;;;8.60;6.60;;;;;;;6.67;100.00;101658.78;696592;28;1015;-46
2022/05/06 01:33:36;;;;;;;7.97;6.70;;;;;;;6.70;100.00;101658.91;697684;28;1320;-45
2022/05/06 01:33:59;;;;;;;9.93;6.40;;;;;;;6.75;100.00;101654.69;692404;28;2971;-45
2022/05/06 01:34:24;;;;;;;8.52;6.47;;;;;;;6.77;100.00;101655.63;694708;28;4459;-46
2022/05/06 01:34:46;;;;;;;10.50;7.30;;;;;;;6.75;100.00;101657.28;695213;28;1593;-45
2022/05/06 01:35:12;;;;;;;8.95;6.43;;;;;;;6.73;100.00;101661.56;691506;28;1225;-45
2022/05/06 01:35:38;;;;;;;8.60;6.32;;;;;;;6.70;100.00;101655.41;691051;28;1187;-46
2022/05/06 01:36:03;;;;;;;8.90;6.75;;;;;;;6.62;100.00;101657.81;692882;28;1417;-45
2022/05/06 01:36:25;;;;;;;9.20;6.95;;;;;;;6.57;100.00;101656.78;693978;28;1237;-45
2022/05/06 01:36:47;;;;;;;9.07;6.80;;;;;;;6.52;100.00;101658.38;693203;28;935;-45
2022/05/06 01:37:11;;;;;;;8.43;6.30;;;;;;;6.47;100.00;101656.53;694018;28;4366;-45
2022/05/06 01:37:35;;;;;;;9.43;6.53;;;;;;;6.44;100.00;101651.25;695374;28;1182;-46
2022/05/06 01:38:02;;;;;;;8.68;6.93;;;;;;;6.41;100.00;101658.97;695832;28;2183;-45
2022/05/06 01:38:36;;;;;;;10.43;7.38;;;;;;;6.35;100.00;101653.59;693955;28;1465;-45
2022/05/06 01:39:02;;;;;;;9.80;6.72;;;;;;;6.30;100.00;101653.47;695108;28;1536;-45
2022/05/06 01:39:32;;;;;;;9.07;6.85;;;;;;;6.30;100.00;101655.19;695268;28;1602;-44
2022/05/06 01:39:59;;;;;;;9.02;6.80;;;;;;;6.27;100.00;101658.56;693912;28;1374;-45
2022/05/06 01:40:24;;;;;;;9.70;6.85;;;;;;;6.26;100.00;101659.41;697859;28;4404;-45
2022/05/06 01:40:59;;;;;;;8.88;6.43;;;;;;;6.26;100.00;101656.81;694515;28;1266;-45
2022/05/06 01:41:26;;;;;;;9.63;6.65;;;;;;;6.24;100.00;101652.41;692402;28;1531;-45
2022/05/06 01:42:20;;;;;;;8.98;6.93;;;;;;;6.22;100.00;101654.97;692786;28;1367;-46
2022/05/06 01:42:46;;;;;;;10.18;7.05;;;;;;;6.22;100.00;101656.69;694834;28;1236;-45
2022/05/06 01:43:10;;;;;;;8.50;6.90;;;;;;;6.26;100.00;101654.22;692671;28;4647;-45
2022/05/06 01:43:42;;;;;;;9.07;7.15;;;;;;;6.32;100.00;101656.09;691581;28;1501;-44
2022/05/06 01:44:07;;;;;;;9.93;7.20;;;;;;;6.38;100.00;101651.06;690772;28;1268;-45
2022/05/06 01:44:34;;;;;;;8.55;6.70;;;;;;;6.44;100.00;101658.19;687791;28;2219;-45
2022/05/06 01:44:56;;;;;;;10.13;6.93;;;;;;;6.49;100.00;101651.38;690585;28;1278;-45
2022/05/06 01:45:19;;;;;;;11.18;7.32;;;;;;;6.53;100.00;101654.94;690819;28;1462;-45
2022/05/06 01:45:48;;;;;;;9.18;6.55;;;;;;;6.58;100.00;101658.56;689892;28;1153;-45
2022/05/06 01:46:14;;;;;;;8.82;6.45;;;;;;;6.62;100.00;101653.47;690677;28;4379;-46